sensor_id;sensor_type;location;lat;lon;timestamp;temperature;humidity
67141;DHT22;54058;52.010;5.546;2023-10-08T00:01:35;18.00;92.30
67141;DHT22;54058;52.010;5.546;2023-10-08T00:04:06;18.00;92.30
67141;DHT22;54058;52.010;5.546;2023-10-08T00:06:33;18.00;92.30
67141;DHT22;54058;52.010;5.546;2023-10-08T00:08:59;17.90;92.30
67141;DHT22;54058;52.010;5.546;2023-10-08T00:11:37;17.90;92.30
67141;DHT22;54058;52.010;5.546;2023-10-08T00:14:04;17.90;92.40
67141;DHT22;54058;52.010;5.546;2023-10-08T00:16:35;17.80;92.40
67141;DHT22;54058;52.010;5.546;2023-10-08T00:19:04;17.80;92.40
67141;DHT22;54058;52.010;5.546;2023-10-08T00:21:34;17.80;92.50
67141;DHT22;54058;52.010;5.546;2023-10-08T00:24:01;17.80;92.60
67141;DHT22;54058;52.010;5.546;2023-10-08T00:26:31;17.80;92.60
67141;DHT22;54058;52.010;5.546;2023-10-08T00:29:04;17.70;92.60
67141;DHT22;54058;52.010;5.546;2023-10-08T00:31:45;17.80;92.70
67141;DHT22;54058;52.010;5.546;2023-10-08T00:34:12;17.70;92.70
67141;DHT22;54058;52.010;5.546;2023-10-08T00:36:43;17.70;92.70
67141;DHT22;54058;52.010;5.546;2023-10-08T00:39:10;17.70;92.70
67141;DHT22;54058;52.010;5.546;2023-10-08T00:41:44;17.80;92.70
67141;DHT22;54058;52.010;5.546;2023-10-08T00:44:13;17.70;92.70
67141;DHT22;54058;52.010;5.546;2023-10-08T00:46:42;17.70;92.80
67141;DHT22;54058;52.010;5.546;2023-10-08T00:49:16;17.70;92.80
67141;DHT22;54058;52.010;5.546;2023-10-08T00:51:48;17.70;92.80
67141;DHT22;54058;52.010;5.546;2023-10-08T00:54:26;17.70;92.90
67141;DHT22;54058;52.010;5.546;2023-10-08T00:56:59;17.70;92.90
67141;DHT22;54058;52.010;5.546;2023-10-08T00:59:31;17.70;93.00
67141;DHT22;54058;52.010;5.546;2023-10-08T01:02:04;17.70;93.00
67141;DHT22;54058;52.010;5.546;2023-10-08T01:04:32;17.70;93.00
67141;DHT22;54058;52.010;5.546;2023-10-08T01:07:03;17.70;93.00
67141;DHT22;54058;52.010;5.546;2023-10-08T01:09:38;17.70;93.10
67141;DHT22;54058;52.010;5.546;2023-10-08T01:12:21;17.70;93.10
67141;DHT22;54058;52.010;5.546;2023-10-08T01:15:00;17.70;93.10
67141;DHT22;54058;52.010;5.546;2023-10-08T01:17:44;17.70;93.10
67141;DHT22;54058;52.010;5.546;2023-10-08T01:20:16;17.70;93.10
67141;DHT22;54058;52.010;5.546;2023-10-08T01:22:59;17.70;93.20
67141;DHT22;54058;52.010;5.546;2023-10-08T01:25:29;17.70;93.20
67141;DHT22;54058;52.010;5.546;2023-10-08T01:27:56;17.60;93.20
67141;DHT22;54058;52.010;5.546;2023-10-08T01:30:23;17.70;93.20
67141;DHT22;54058;52.010;5.546;2023-10-08T01:32:48;17.70;93.30
67141;DHT22;54058;52.010;5.546;2023-10-08T01:35:14;17.70;93.20
67141;DHT22;54058;52.010;5.546;2023-10-08T01:37:49;17.70;93.30
67141;DHT22;54058;52.010;5.546;2023-10-08T01:40:16;17.70;93.50
67141;DHT22;54058;52.010;5.546;2023-10-08T01:42:43;17.70;93.30
67141;DHT22;54058;52.010;5.546;2023-10-08T01:45:09;17.70;93.80
67141;DHT22;54058;52.010;5.546;2023-10-08T01:47:36;17.70;93.20
67141;DHT22;54058;52.010;5.546;2023-10-08T01:50:02;17.70;93.20
67141;DHT22;54058;52.010;5.546;2023-10-08T01:52:31;17.70;93.30
67141;DHT22;54058;52.010;5.546;2023-10-08T01:54:57;17.70;93.30
67141;DHT22;54058;52.010;5.546;2023-10-08T01:57:23;17.70;93.40
67141;DHT22;54058;52.010;5.546;2023-10-08T01:59:49;17.60;93.40
67141;DHT22;54058;52.010;5.546;2023-10-08T02:02:14;17.60;93.40
67141;DHT22;54058;52.010;5.546;2023-10-08T02:04:41;17.60;93.50
67141;DHT22;54058;52.010;5.546;2023-10-08T02:07:07;17.60;93.60
67141;DHT22;54058;52.010;5.546;2023-10-08T02:09:41;17.60;93.90
67141;DHT22;54058;52.010;5.546;2023-10-08T02:12:07;17.60;93.60
67141;DHT22;54058;52.010;5.546;2023-10-08T02:14:33;17.60;93.90
67141;DHT22;54058;52.010;5.546;2023-10-08T02:17:01;17.60;93.70
67141;DHT22;54058;52.010;5.546;2023-10-08T02:19:32;17.60;94.00
67141;DHT22;54058;52.010;5.546;2023-10-08T02:21:58;17.60;93.80
67141;DHT22;54058;52.010;5.546;2023-10-08T02:24:24;17.60;93.80
67141;DHT22;54058;52.010;5.546;2023-10-08T02:26:51;17.60;93.80
67141;DHT22;54058;52.010;5.546;2023-10-08T02:29:18;17.60;93.80
67141;DHT22;54058;52.010;5.546;2023-10-08T02:31:44;17.60;93.80
67141;DHT22;54058;52.010;5.546;2023-10-08T02:34:11;17.60;93.90
67141;DHT22;54058;52.010;5.546;2023-10-08T02:36:38;17.60;93.90
67141;DHT22;54058;52.010;5.546;2023-10-08T02:39:06;17.50;93.90
67141;DHT22;54058;52.010;5.546;2023-10-08T02:41:51;17.50;93.90
67141;DHT22;54058;52.010;5.546;2023-10-08T02:44:18;17.50;93.90
67141;DHT22;54058;52.010;5.546;2023-10-08T02:46:47;17.50;93.90
67141;DHT22;54058;52.010;5.546;2023-10-08T02:49:14;17.50;94.20
67141;DHT22;54058;52.010;5.546;2023-10-08T02:51:45;17.50;94.20
67141;DHT22;54058;52.010;5.546;2023-10-08T02:54:11;17.40;94.20
67141;DHT22;54058;52.010;5.546;2023-10-08T02:56:53;17.40;94.30
67141;DHT22;54058;52.010;5.546;2023-10-08T02:59:23;17.40;94.30
67141;DHT22;54058;52.010;5.546;2023-10-08T03:01:50;17.50;94.30
67141;DHT22;54058;52.010;5.546;2023-10-08T03:04:18;17.40;94.30
67141;DHT22;54058;52.010;5.546;2023-10-08T03:06:47;17.40;94.30
67141;DHT22;54058;52.010;5.546;2023-10-08T03:09:17;17.40;94.30
67141;DHT22;54058;52.010;5.546;2023-10-08T03:11:47;17.40;94.30
67141;DHT22;54058;52.010;5.546;2023-10-08T03:14:15;17.40;94.40
67141;DHT22;54058;52.010;5.546;2023-10-08T03:16:51;17.40;94.50
67141;DHT22;54058;52.010;5.546;2023-10-08T03:19:22;17.40;94.50
67141;DHT22;54058;52.010;5.546;2023-10-08T03:21:50;17.40;94.50
67141;DHT22;54058;52.010;5.546;2023-10-08T03:24:22;17.40;94.50
67141;DHT22;54058;52.010;5.546;2023-10-08T03:27:00;17.40;94.50
67141;DHT22;54058;52.010;5.546;2023-10-08T03:29:34;17.40;94.50
67141;DHT22;54058;52.010;5.546;2023-10-08T03:32:06;17.40;94.60
67141;DHT22;54058;52.010;5.546;2023-10-08T03:34:32;17.40;94.60
67141;DHT22;54058;52.010;5.546;2023-10-08T03:37:00;17.40;94.60
67141;DHT22;54058;52.010;5.546;2023-10-08T03:39:31;17.40;94.50
67141;DHT22;54058;52.010;5.546;2023-10-08T03:42:25;17.40;94.50
67141;DHT22;54058;52.010;5.546;2023-10-08T03:44:52;17.40;94.50
67141;DHT22;54058;52.010;5.546;2023-10-08T03:47:22;17.40;94.40
67141;DHT22;54058;52.010;5.546;2023-10-08T03:49:51;17.40;94.50
67141;DHT22;54058;52.010;5.546;2023-10-08T03:52:17;17.40;94.60
67141;DHT22;54058;52.010;5.546;2023-10-08T03:54:49;17.30;94.80
67141;DHT22;54058;52.010;5.546;2023-10-08T03:57:28;17.30;94.90
67141;DHT22;54058;52.010;5.546;2023-10-08T04:00:10;17.30;94.90
67141;DHT22;54058;52.010;5.546;2023-10-08T04:02:43;17.30;94.90
67141;DHT22;54058;52.010;5.546;2023-10-08T04:05:20;17.30;95.40
67141;DHT22;54058;52.010;5.546;2023-10-08T04:07:47;17.30;95.60
67141;DHT22;54058;52.010;5.546;2023-10-08T04:10:29;17.30;94.80
67141;DHT22;54058;52.010;5.546;2023-10-08T04:13:14;17.30;94.80
67141;DHT22;54058;52.010;5.546;2023-10-08T04:15:42;17.30;94.80
67141;DHT22;54058;52.010;5.546;2023-10-08T04:18:08;17.30;94.80
67141;DHT22;54058;52.010;5.546;2023-10-08T04:20:34;17.30;95.00
67141;DHT22;54058;52.010;5.546;2023-10-08T04:23:05;17.30;94.90
67141;DHT22;54058;52.010;5.546;2023-10-08T04:25:32;17.30;95.00
67141;DHT22;54058;52.010;5.546;2023-10-08T04:27:58;17.30;95.00
67141;DHT22;54058;52.010;5.546;2023-10-08T04:33:05;17.30;94.90
67141;DHT22;54058;52.010;5.546;2023-10-08T04:35:37;17.30;95.00
67141;DHT22;54058;52.010;5.546;2023-10-08T04:38:16;17.30;95.10
67141;DHT22;54058;52.010;5.546;2023-10-08T04:40:47;17.30;95.10
67141;DHT22;54058;52.010;5.546;2023-10-08T04:43:23;17.30;95.10
67141;DHT22;54058;52.010;5.546;2023-10-08T04:45:57;17.30;95.10
67141;DHT22;54058;52.010;5.546;2023-10-08T04:48:26;17.40;95.10
67141;DHT22;54058;52.010;5.546;2023-10-08T04:50:58;17.40;95.20
67141;DHT22;54058;52.010;5.546;2023-10-08T04:53:28;17.40;95.10
67141;DHT22;54058;52.010;5.546;2023-10-08T04:56:01;17.40;95.20
67141;DHT22;54058;52.010;5.546;2023-10-08T04:58:42;17.40;95.20
67141;DHT22;54058;52.010;5.546;2023-10-08T05:01:12;17.40;95.10
67141;DHT22;54058;52.010;5.546;2023-10-08T05:03:51;17.40;95.10
67141;DHT22;54058;52.010;5.546;2023-10-08T05:09:05;17.50;95.30
67141;DHT22;54058;52.010;5.546;2023-10-08T05:11:52;17.40;95.40
67141;DHT22;54058;52.010;5.546;2023-10-08T05:14:22;17.40;95.50
67141;DHT22;54058;52.010;5.546;2023-10-08T05:17:06;17.40;95.60
67141;DHT22;54058;52.010;5.546;2023-10-08T05:19:37;17.30;96.00
67141;DHT22;54058;52.010;5.546;2023-10-08T05:22:09;17.20;96.00
67141;DHT22;54058;52.010;5.546;2023-10-08T05:24:45;17.00;96.00
67141;DHT22;54058;52.010;5.546;2023-10-08T05:27:32;16.90;96.00
67141;DHT22;54058;52.010;5.546;2023-10-08T05:30:17;16.80;96.00
67141;DHT22;54058;52.010;5.546;2023-10-08T05:32:56;16.70;96.10
67141;DHT22;54058;52.010;5.546;2023-10-08T05:35:36;16.60;96.20
67141;DHT22;54058;52.010;5.546;2023-10-08T05:38:11;16.50;96.10
67141;DHT22;54058;52.010;5.546;2023-10-08T05:41:01;16.40;96.10
67141;DHT22;54058;52.010;5.546;2023-10-08T05:43:34;16.20;96.20
67141;DHT22;54058;52.010;5.546;2023-10-08T05:46:20;16.20;96.20
67141;DHT22;54058;52.010;5.546;2023-10-08T05:51:34;16.00;96.30
67141;DHT22;54058;52.010;5.546;2023-10-08T05:54:18;15.90;96.30
67141;DHT22;54058;52.010;5.546;2023-10-08T05:59:46;15.80;96.20
67141;DHT22;54058;52.010;5.546;2023-10-08T06:02:21;15.70;96.30
67141;DHT22;54058;52.010;5.546;2023-10-08T06:05:07;15.60;96.30
67141;DHT22;54058;52.010;5.546;2023-10-08T06:10:28;15.50;96.30
67141;DHT22;54058;52.010;5.546;2023-10-08T06:13:08;15.50;96.40
67141;DHT22;54058;52.010;5.546;2023-10-08T06:15:45;15.40;96.30
67141;DHT22;54058;52.010;5.546;2023-10-08T06:18:18;15.40;96.20
67141;DHT22;54058;52.010;5.546;2023-10-08T06:20:45;15.40;96.20
67141;DHT22;54058;52.010;5.546;2023-10-08T06:23:12;15.30;96.30
67141;DHT22;54058;52.010;5.546;2023-10-08T06:25:39;15.30;96.20
67141;DHT22;54058;52.010;5.546;2023-10-08T06:28:14;15.20;96.10
67141;DHT22;54058;52.010;5.546;2023-10-08T06:30:41;15.20;96.10
67141;DHT22;54058;52.010;5.546;2023-10-08T06:33:10;15.30;96.10
67141;DHT22;54058;52.010;5.546;2023-10-08T06:35:36;15.20;96.00
67141;DHT22;54058;52.010;5.546;2023-10-08T06:38:02;15.10;96.00
67141;DHT22;54058;52.010;5.546;2023-10-08T06:40:41;15.10;95.90
67141;DHT22;54058;52.010;5.546;2023-10-08T06:43:08;15.10;95.90
67141;DHT22;54058;52.010;5.546;2023-10-08T06:46:03;15.20;96.10
67141;DHT22;54058;52.010;5.546;2023-10-08T06:48:32;15.20;95.70
67141;DHT22;54058;52.010;5.546;2023-10-08T06:51:00;15.10;95.60
67141;DHT22;54058;52.010;5.546;2023-10-08T06:53:33;15.10;95.70
67141;DHT22;54058;52.010;5.546;2023-10-08T06:55:59;15.10;95.70
67141;DHT22;54058;52.010;5.546;2023-10-08T06:58:30;15.20;95.60
67141;DHT22;54058;52.010;5.546;2023-10-08T07:00:57;15.30;95.70
67141;DHT22;54058;52.010;5.546;2023-10-08T07:03:24;15.20;95.40
67141;DHT22;54058;52.010;5.546;2023-10-08T07:05:51;15.20;95.30
67141;DHT22;54058;52.010;5.546;2023-10-08T07:08:24;15.20;95.30
67141;DHT22;54058;52.010;5.546;2023-10-08T07:10:53;15.10;95.30
67141;DHT22;54058;52.010;5.546;2023-10-08T07:13:22;15.20;95.30
67141;DHT22;54058;52.010;5.546;2023-10-08T07:15:52;15.20;95.30
67141;DHT22;54058;52.010;5.546;2023-10-08T07:18:18;15.10;95.00
67141;DHT22;54058;52.010;5.546;2023-10-08T07:20:51;15.10;95.10
67141;DHT22;54058;52.010;5.546;2023-10-08T07:23:23;15.10;95.10
67141;DHT22;54058;52.010;5.546;2023-10-08T07:25:56;15.10;95.10
67141;DHT22;54058;52.010;5.546;2023-10-08T07:28:52;15.10;95.10
67141;DHT22;54058;52.010;5.546;2023-10-08T07:31:22;15.10;95.10
67141;DHT22;54058;52.010;5.546;2023-10-08T07:33:54;15.20;95.00
67141;DHT22;54058;52.010;5.546;2023-10-08T07:36:26;15.20;95.00
67141;DHT22;54058;52.010;5.546;2023-10-08T07:38:53;15.10;95.00
67141;DHT22;54058;52.010;5.546;2023-10-08T07:41:19;15.20;95.00
67141;DHT22;54058;52.010;5.546;2023-10-08T07:43:46;15.30;95.00
67141;DHT22;54058;52.010;5.546;2023-10-08T07:46:25;15.30;94.90
67141;DHT22;54058;52.010;5.546;2023-10-08T07:48:54;15.30;94.80
67141;DHT22;54058;52.010;5.546;2023-10-08T07:51:20;15.40;94.90
67141;DHT22;54058;52.010;5.546;2023-10-08T07:53:52;15.40;94.70
67141;DHT22;54058;52.010;5.546;2023-10-08T07:56:24;15.40;94.70
67141;DHT22;54058;52.010;5.546;2023-10-08T07:58:51;15.40;94.60
67141;DHT22;54058;52.010;5.546;2023-10-08T08:01:16;15.40;94.60
67141;DHT22;54058;52.010;5.546;2023-10-08T08:03:42;15.30;94.50
67141;DHT22;54058;52.010;5.546;2023-10-08T08:06:11;15.30;94.60
67141;DHT22;54058;52.010;5.546;2023-10-08T08:08:37;15.40;94.60
67141;DHT22;54058;52.010;5.546;2023-10-08T08:11:07;15.40;94.50
67141;DHT22;54058;52.010;5.546;2023-10-08T08:13:40;15.30;94.50
67141;DHT22;54058;52.010;5.546;2023-10-08T08:16:08;15.40;94.60
67141;DHT22;54058;52.010;5.546;2023-10-08T08:18:54;15.40;94.60
67141;DHT22;54058;52.010;5.546;2023-10-08T08:21:23;15.50;94.30
67141;DHT22;54058;52.010;5.546;2023-10-08T08:23:49;15.50;94.30
67141;DHT22;54058;52.010;5.546;2023-10-08T08:26:24;15.60;94.40
67141;DHT22;54058;52.010;5.546;2023-10-08T08:28:56;15.60;94.20
67141;DHT22;54058;52.010;5.546;2023-10-08T08:31:26;15.70;94.20
67141;DHT22;54058;52.010;5.546;2023-10-08T08:33:53;15.80;94.20
67141;DHT22;54058;52.010;5.546;2023-10-08T08:36:22;15.80;93.90
67141;DHT22;54058;52.010;5.546;2023-10-08T08:38:48;15.80;94.00
67141;DHT22;54058;52.010;5.546;2023-10-08T08:41:14;15.90;93.90
67141;DHT22;54058;52.010;5.546;2023-10-08T08:43:48;15.90;93.80
67141;DHT22;54058;52.010;5.546;2023-10-08T08:46:15;16.00;93.70
67141;DHT22;54058;52.010;5.546;2023-10-08T08:48:44;15.90;93.60
67141;DHT22;54058;52.010;5.546;2023-10-08T08:51:10;15.90;93.60
67141;DHT22;54058;52.010;5.546;2023-10-08T08:53:37;15.90;93.70
67141;DHT22;54058;52.010;5.546;2023-10-08T08:56:06;15.90;93.70
67141;DHT22;54058;52.010;5.546;2023-10-08T08:58:35;15.80;93.60
67141;DHT22;54058;52.010;5.546;2023-10-08T09:01:02;15.80;93.70
67141;DHT22;54058;52.010;5.546;2023-10-08T09:03:29;15.80;93.90
67141;DHT22;54058;52.010;5.546;2023-10-08T09:05:58;15.80;93.90
67141;DHT22;54058;52.010;5.546;2023-10-08T09:08:34;15.90;93.90
67141;DHT22;54058;52.010;5.546;2023-10-08T09:11:00;15.90;93.10
67141;DHT22;54058;52.010;5.546;2023-10-08T09:13:27;16.00;93.80
67141;DHT22;54058;52.010;5.546;2023-10-08T09:16:01;16.00;93.70
67141;DHT22;54058;52.010;5.546;2023-10-08T09:18:29;16.10;93.70
67141;DHT22;54058;52.010;5.546;2023-10-08T09:21:10;16.20;93.70
67141;DHT22;54058;52.010;5.546;2023-10-08T09:23:39;16.20;93.50
67141;DHT22;54058;52.010;5.546;2023-10-08T09:26:11;16.30;93.50
67141;DHT22;54058;52.010;5.546;2023-10-08T09:28:40;16.30;93.60
67141;DHT22;54058;52.010;5.546;2023-10-08T09:31:10;16.40;93.80
67141;DHT22;54058;52.010;5.546;2023-10-08T09:33:37;16.50;93.50
67141;DHT22;54058;52.010;5.546;2023-10-08T09:36:03;16.50;93.40
67141;DHT22;54058;52.010;5.546;2023-10-08T09:38:33;16.50;93.40
67141;DHT22;54058;52.010;5.546;2023-10-08T09:40:59;16.50;93.50
67141;DHT22;54058;52.010;5.546;2023-10-08T09:43:29;16.60;93.60
67141;DHT22;54058;52.010;5.546;2023-10-08T09:46:03;16.60;93.50
67141;DHT22;54058;52.010;5.546;2023-10-08T09:48:37;16.70;93.50
67141;DHT22;54058;52.010;5.546;2023-10-08T09:51:02;16.70;93.50
67141;DHT22;54058;52.010;5.546;2023-10-08T09:53:40;16.70;93.50
67141;DHT22;54058;52.010;5.546;2023-10-08T09:56:13;16.80;93.40
67141;DHT22;54058;52.010;5.546;2023-10-08T09:58:41;16.80;93.30
67141;DHT22;54058;52.010;5.546;2023-10-08T10:01:08;16.80;93.30
67141;DHT22;54058;52.010;5.546;2023-10-08T10:03:35;16.70;93.30
67141;DHT22;54058;52.010;5.546;2023-10-08T10:06:01;16.70;93.50
67141;DHT22;54058;52.010;5.546;2023-10-08T10:08:27;16.70;93.60
67141;DHT22;54058;52.010;5.546;2023-10-08T10:10:59;16.70;93.50
67141;DHT22;54058;52.010;5.546;2023-10-08T10:13:28;16.70;93.50
67141;DHT22;54058;52.010;5.546;2023-10-08T10:15:54;16.80;93.60
67141;DHT22;54058;52.010;5.546;2023-10-08T10:23:48;16.80;93.70
67141;DHT22;54058;52.010;5.546;2023-10-08T10:26:35;16.90;93.60
67141;DHT22;54058;52.010;5.546;2023-10-08T10:31:46;17.00;93.30
67141;DHT22;54058;52.010;5.546;2023-10-08T10:34:26;16.90;93.30
67141;DHT22;54058;52.010;5.546;2023-10-08T10:36:54;16.90;93.20
67141;DHT22;54058;52.010;5.546;2023-10-08T10:39:34;17.00;93.40
67141;DHT22;54058;52.010;5.546;2023-10-08T10:42:06;17.10;93.20
67141;DHT22;54058;52.010;5.546;2023-10-08T10:44:33;17.20;93.10
67141;DHT22;54058;52.010;5.546;2023-10-08T10:47:02;17.20;93.00
67141;DHT22;54058;52.010;5.546;2023-10-08T10:49:46;17.40;92.90
67141;DHT22;54058;52.010;5.546;2023-10-08T10:52:27;17.40;92.60
67141;DHT22;54058;52.010;5.546;2023-10-08T10:55:13;17.50;92.60
67141;DHT22;54058;52.010;5.546;2023-10-08T10:57:40;17.50;92.60
67141;DHT22;54058;52.010;5.546;2023-10-08T11:00:08;17.50;92.50
67141;DHT22;54058;52.010;5.546;2023-10-08T11:02:52;17.60;92.50
67141;DHT22;54058;52.010;5.546;2023-10-08T11:05:22;17.60;92.20
67141;DHT22;54058;52.010;5.546;2023-10-08T11:07:58;17.70;92.30
67141;DHT22;54058;52.010;5.546;2023-10-08T11:10:37;17.70;92.20
67141;DHT22;54058;52.010;5.546;2023-10-08T11:13:11;17.80;92.10
67141;DHT22;54058;52.010;5.546;2023-10-08T11:15:44;17.90;92.10
67141;DHT22;54058;52.010;5.546;2023-10-08T11:18:16;17.80;91.80
67141;DHT22;54058;52.010;5.546;2023-10-08T11:20:42;17.80;91.90
67141;DHT22;54058;52.010;5.546;2023-10-08T11:23:41;17.70;91.70
67141;DHT22;54058;52.010;5.546;2023-10-08T11:26:07;17.70;91.20
67141;DHT22;54058;52.010;5.546;2023-10-08T11:28:38;17.70;91.80
67141;DHT22;54058;52.010;5.546;2023-10-08T11:31:14;17.60;91.60
67141;DHT22;54058;52.010;5.546;2023-10-08T11:33:44;17.60;91.80
67141;DHT22;54058;52.010;5.546;2023-10-08T11:36:20;17.60;91.80
67141;DHT22;54058;52.010;5.546;2023-10-08T11:38:53;17.60;91.80
67141;DHT22;54058;52.010;5.546;2023-10-08T11:41:26;17.70;91.70
67141;DHT22;54058;52.010;5.546;2023-10-08T11:43:53;17.80;91.70
67141;DHT22;54058;52.010;5.546;2023-10-08T11:46:31;17.80;90.50
67141;DHT22;54058;52.010;5.546;2023-10-08T11:49:20;17.90;91.30
67141;DHT22;54058;52.010;5.546;2023-10-08T11:51:51;17.80;91.20
67141;DHT22;54058;52.010;5.546;2023-10-08T11:54:21;17.80;91.30
67141;DHT22;54058;52.010;5.546;2023-10-08T11:56:49;17.80;91.30
67141;DHT22;54058;52.010;5.546;2023-10-08T11:59:14;17.80;91.20
67141;DHT22;54058;52.010;5.546;2023-10-08T12:01:43;17.80;91.60
67141;DHT22;54058;52.010;5.546;2023-10-08T12:04:09;17.90;91.20
67141;DHT22;54058;52.010;5.546;2023-10-08T12:06:41;17.80;91.00
67141;DHT22;54058;52.010;5.546;2023-10-08T12:09:13;17.80;91.10
67141;DHT22;54058;52.010;5.546;2023-10-08T12:11:38;17.80;91.00
67141;DHT22;54058;52.010;5.546;2023-10-08T12:14:05;17.80;90.90
67141;DHT22;54058;52.010;5.546;2023-10-08T12:16:30;17.80;91.00
67141;DHT22;54058;52.010;5.546;2023-10-08T12:19:01;17.80;90.80
67141;DHT22;54058;52.010;5.546;2023-10-08T12:21:30;17.80;90.80
67141;DHT22;54058;52.010;5.546;2023-10-08T12:23:59;17.80;90.80
67141;DHT22;54058;52.010;5.546;2023-10-08T12:26:25;17.90;90.80
67141;DHT22;54058;52.010;5.546;2023-10-08T12:28:51;18.00;90.70
67141;DHT22;54058;52.010;5.546;2023-10-08T12:31:20;18.10;90.70
67141;DHT22;54058;52.010;5.546;2023-10-08T12:33:52;18.20;90.50
67141;DHT22;54058;52.010;5.546;2023-10-08T12:36:22;18.30;90.40
67141;DHT22;54058;52.010;5.546;2023-10-08T12:38:49;18.30;90.20
67141;DHT22;54058;52.010;5.546;2023-10-08T12:41:15;18.40;90.30
67141;DHT22;54058;52.010;5.546;2023-10-08T12:43:45;18.50;90.30
67141;DHT22;54058;52.010;5.546;2023-10-08T12:46:14;18.60;90.30
67141;DHT22;54058;52.010;5.546;2023-10-08T12:48:53;18.80;90.30
67141;DHT22;54058;52.010;5.546;2023-10-08T12:51:22;18.80;90.20
67141;DHT22;54058;52.010;5.546;2023-10-08T12:53:51;18.90;90.10
67141;DHT22;54058;52.010;5.546;2023-10-08T12:56:25;18.80;89.70
67141;DHT22;54058;52.010;5.546;2023-10-08T12:58:58;18.80;90.00
67141;DHT22;54058;52.010;5.546;2023-10-08T13:01:23;18.70;89.70
67141;DHT22;54058;52.010;5.546;2023-10-08T13:03:54;18.60;90.10
67141;DHT22;54058;52.010;5.546;2023-10-08T13:06:25;18.70;90.10
67141;DHT22;54058;52.010;5.546;2023-10-08T13:08:58;18.70;90.10
67141;DHT22;54058;52.010;5.546;2023-10-08T13:11:26;18.80;90.10
67141;DHT22;54058;52.010;5.546;2023-10-08T13:13:56;18.90;90.10
67141;DHT22;54058;52.010;5.546;2023-10-08T13:16:23;18.90;90.00
67141;DHT22;54058;52.010;5.546;2023-10-08T13:18:49;18.90;90.00
67141;DHT22;54058;52.010;5.546;2023-10-08T13:21:16;18.90;89.90
67141;DHT22;54058;52.010;5.546;2023-10-08T13:23:44;18.90;90.00
67141;DHT22;54058;52.010;5.546;2023-10-08T13:26:09;18.90;89.90
67141;DHT22;54058;52.010;5.546;2023-10-08T13:28:42;18.90;90.10
67141;DHT22;54058;52.010;5.546;2023-10-08T13:31:08;18.90;89.90
67141;DHT22;54058;52.010;5.546;2023-10-08T13:33:41;19.00;90.00
67141;DHT22;54058;52.010;5.546;2023-10-08T13:36:15;19.10;89.90
67141;DHT22;54058;52.010;5.546;2023-10-08T13:38:41;19.10;89.90
67141;DHT22;54058;52.010;5.546;2023-10-08T13:41:07;19.20;89.80
67141;DHT22;54058;52.010;5.546;2023-10-08T13:43:44;19.30;89.70
67141;DHT22;54058;52.010;5.546;2023-10-08T13:46:14;19.20;89.60
67141;DHT22;54058;52.010;5.546;2023-10-08T13:48:41;19.20;89.70
67141;DHT22;54058;52.010;5.546;2023-10-08T13:51:07;19.20;89.80
67141;DHT22;54058;52.010;5.546;2023-10-08T13:53:40;19.20;89.70
67141;DHT22;54058;52.010;5.546;2023-10-08T13:56:05;19.10;89.80
67141;DHT22;54058;52.010;5.546;2023-10-08T13:58:31;19.10;89.80
67141;DHT22;54058;52.010;5.546;2023-10-08T14:01:00;19.10;89.70
67141;DHT22;54058;52.010;5.546;2023-10-08T14:03:27;19.10;90.00
67141;DHT22;54058;52.010;5.546;2023-10-08T14:05:54;19.00;89.80
67141;DHT22;54058;52.010;5.546;2023-10-08T14:08:20;18.90;90.00
67141;DHT22;54058;52.010;5.546;2023-10-08T14:10:47;18.80;90.00
67141;DHT22;54058;52.010;5.546;2023-10-08T14:13:15;18.80;90.00
67141;DHT22;54058;52.010;5.546;2023-10-08T14:15:45;18.70;90.00
67141;DHT22;54058;52.010;5.546;2023-10-08T14:18:14;18.60;89.90
67141;DHT22;54058;52.010;5.546;2023-10-08T14:20:45;18.50;90.00
67141;DHT22;54058;52.010;5.546;2023-10-08T14:23:13;18.50;90.10
67141;DHT22;54058;52.010;5.546;2023-10-08T14:25:42;18.50;90.10
67141;DHT22;54058;52.010;5.546;2023-10-08T14:28:11;18.50;89.90
67141;DHT22;54058;52.010;5.546;2023-10-08T14:30:49;18.50;90.00
67141;DHT22;54058;52.010;5.546;2023-10-08T14:33:21;18.50;89.00
67141;DHT22;54058;52.010;5.546;2023-10-08T14:35:52;18.50;90.00
67141;DHT22;54058;52.010;5.546;2023-10-08T14:38:36;18.50;89.90
67141;DHT22;54058;52.010;5.546;2023-10-08T14:41:20;18.40;90.10
67141;DHT22;54058;52.010;5.546;2023-10-08T14:44:04;18.30;90.00
67141;DHT22;54058;52.010;5.546;2023-10-08T14:46:32;18.20;90.10
67141;DHT22;54058;52.010;5.546;2023-10-08T14:49:00;18.20;90.10
67141;DHT22;54058;52.010;5.546;2023-10-08T14:51:27;18.20;90.00
67141;DHT22;54058;52.010;5.546;2023-10-08T14:53:55;18.20;90.30
67141;DHT22;54058;52.010;5.546;2023-10-08T14:56:21;18.20;89.90
67141;DHT22;54058;52.010;5.546;2023-10-08T14:58:48;18.20;89.90
67141;DHT22;54058;52.010;5.546;2023-10-08T15:01:14;18.20;90.00
67141;DHT22;54058;52.010;5.546;2023-10-08T15:03:40;18.20;90.00
67141;DHT22;54058;52.010;5.546;2023-10-08T15:06:06;18.20;89.90
67141;DHT22;54058;52.010;5.546;2023-10-08T15:08:33;18.10;89.90
67141;DHT22;54058;52.010;5.546;2023-10-08T15:10:59;18.10;90.00
67141;DHT22;54058;52.010;5.546;2023-10-08T15:13:26;18.10;90.00
67141;DHT22;54058;52.010;5.546;2023-10-08T15:15:52;18.10;90.00
67141;DHT22;54058;52.010;5.546;2023-10-08T15:18:19;18.00;90.00
67141;DHT22;54058;52.010;5.546;2023-10-08T15:20:48;18.00;90.10
67141;DHT22;54058;52.010;5.546;2023-10-08T15:23:14;18.00;90.10
67141;DHT22;54058;52.010;5.546;2023-10-08T15:25:42;18.00;90.10
67141;DHT22;54058;52.010;5.546;2023-10-08T15:28:08;18.00;90.10
67141;DHT22;54058;52.010;5.546;2023-10-08T15:30:33;18.10;90.10
67141;DHT22;54058;52.010;5.546;2023-10-08T15:32:59;18.00;90.00
67141;DHT22;54058;52.010;5.546;2023-10-08T15:35:24;18.00;90.00
67141;DHT22;54058;52.010;5.546;2023-10-08T15:37:51;18.00;90.10
67141;DHT22;54058;52.010;5.546;2023-10-08T15:40:16;18.00;90.10
67141;DHT22;54058;52.010;5.546;2023-10-08T15:42:55;17.90;90.10
67141;DHT22;54058;52.010;5.546;2023-10-08T15:45:23;17.90;90.10
67141;DHT22;54058;52.010;5.546;2023-10-08T15:47:50;17.80;90.10
67141;DHT22;54058;52.010;5.546;2023-10-08T15:50:16;17.80;90.10
67141;DHT22;54058;52.010;5.546;2023-10-08T15:52:42;17.80;90.20
67141;DHT22;54058;52.010;5.546;2023-10-08T15:55:08;17.70;90.30
67141;DHT22;54058;52.010;5.546;2023-10-08T15:57:35;17.70;90.30
67141;DHT22;54058;52.010;5.546;2023-10-08T16:00:01;17.70;90.20
67141;DHT22;54058;52.010;5.546;2023-10-08T16:02:29;17.80;90.30
67141;DHT22;54058;52.010;5.546;2023-10-08T16:04:55;17.70;90.20
67141;DHT22;54058;52.010;5.546;2023-10-08T16:07:21;17.70;90.20
67141;DHT22;54058;52.010;5.546;2023-10-08T16:09:46;17.70;90.30
67141;DHT22;54058;52.010;5.546;2023-10-08T16:12:12;17.70;90.30
67141;DHT22;54058;52.010;5.546;2023-10-08T16:14:38;17.70;90.20